Sankoumaru 31 — JD2200 — position and weather

sailwx.info

Track history (hours):
 
Tides and Currents Weather Stations Pressure Air Temp Water Temp Dewpoint Dewpoint Depression Visibility Wind Speed Wind Dir Waves Ship Positions

Sankoumaru 31

Last reported at 2015-Jul-06 00:31 UTC. Time now 2015-Jul-06 00:55 UTC.
Position N 35°55' E 140°40'.

Length 75 m; draft 5 m.

Type: Cargo ship. MMSI: 431501842.

Date/timePositionNaut miles runAvg speedWind from/ knotsBaromVisibWave heightAir tempDewpointWater temp
2015-Jul-06 00:31N 35°55' E 140°40'0 0.0
2015-Jul-05 23:22N 35°55' E 140°40'0 0.0
2015-Jul-05 22:28N 35°55' E 140°40'0 0.0
2015-Jul-05 21:25N 35°55' E 140°40'0 0.0
2015-Jul-05 20:25N 35°55' E 140°40'0 0.0
2015-Jul-05 19:28N 35°55' E 140°40'0 0.0
2015-Jul-05 18:31N 35°55' E 140°40'0 0.0
2015-Jul-05 17:28N 35°55' E 140°40'0 0.0
2015-Jul-05 16:28N 35°55' E 140°40'0 0.0
2015-Jul-05 15:31N 35°55' E 140°40'0 0.0
2015-Jul-05 14:31N 35°55' E 140°40'0 0.0
2015-Jul-05 13:31N 35°55' E 140°40'0 0.1
2015-Jul-05 12:33N 35°55' E 140°40'  
2015-Jul-03 04:32N 35°26' E 140°40'1211.3
2015-Jul-03 03:30N 35°17' E 140°31'1111.3
2015-Jul-03 02:30N 35°08' E 140°23'1212.3
2015-Jul-03 01:33N 35°01' E 140°11'1312.9
2015-Jul-03 00:33N 34°54' E 139°58'1010.2
2015-Jul-02 23:33N 34°55' E 139°46'1010.1
2015-Jul-02 22:33N 35°05' E 139°44'1111.3
2015-Jul-02 21:33N 35°16' E 139°45'9 9.1
2015-Jul-02 20:33N 35°26' E 139°47'7 6.8
2015-Jul-02 19:33N 35°22' E 139°53'0 0.0
2015-Jul-02 18:33N 35°22' E 139°53'0 0.0
2015-Jul-02 17:33N 35°22' E 139°53'0 0.0
2015-Jul-02 16:33N 35°22' E 139°53'0 0.0
2015-Jul-02 15:30N 35°22' E 139°53'0 0.0
2015-Jul-02 14:27N 35°22' E 139°53'0 0.0
2015-Jul-02 13:27N 35°22' E 139°53'0 0.0
2015-Jul-02 12:33N 35°22' E 139°53'0 0.0
2015-Jul-02 11:30N 35°22' E 139°53'0 0.0
2015-Jul-02 10:21N 35°22' E 139°53'0 0.0
2015-Jul-02 09:30N 35°22' E 139°53'0 0.0
2015-Jul-02 08:33N 35°22' E 139°53'0 0.0
2015-Jul-02 07:33N 35°22' E 139°53'8 7.9
2015-Jul-02 06:33N 35°29' E 139°51'1111.1
2015-Jul-02 05:33N 35°39' E 139°58'2 1.0
2015-Jul-02 03:23N 35°41' E 139°57'0 0.0
2015-Jul-02 02:23N 35°41' E 139°57'0 0.0
2015-Jul-02 01:17N 35°41' E 139°57'0 0.0
2015-Jul-02 00:29N 35°41' E 139°57'0 0.0
2015-Jul-01 22:11N 35°41' E 139°57'0 0.0
2015-Jul-01 21:17N 35°41' E 139°57'0 0.0
2015-Jul-01 20:23N 35°41' E 139°57'0 0.0
2015-Jul-01 19:11N 35°41' E 139°57'0 0.0
2015-Jul-01 18:29N 35°41' E 139°57'0 0.0
2015-Jul-01 17:11N 35°41' E 139°57'0 0.0
2015-Jul-01 16:23N 35°41' E 139°57'0 0.0
2015-Jul-01 14:29N 35°41' E 139°57'0 0.0
2015-Jul-01 13:29N 35°41' E 139°57'0 0.0
2015-Jul-01 12:29N 35°41' E 139°57'0 0.0
2015-Jul-01 11:23N 35°41' E 139°57'0 0.0
2015-Jul-01 10:29N 35°41' E 139°57'0 0.0
2015-Jul-01 09:29N 35°41' E 139°57'0 0.0
2015-Jul-01 08:23N 35°41' E 139°57'0 0.0
2015-Jul-01 07:11N 35°41' E 139°57'0 0.0
2015-Jul-01 06:11N 35°41' E 139°57'0 0.0
2015-Jul-01 05:23N 35°41' E 139°57'0 0.0
2015-Jul-01 04:17N 35°41' E 139°57'0 0.0
2015-Jul-01 03:23N 35°41' E 139°57'0 0.0
2015-Jul-01 02:29N 35°41' E 139°57'0 0.0
2015-Jul-01 01:29N 35°41' E 139°57'0 0.0
2015-Jul-01 00:29N 35°41' E 139°57'0 0.0
2015-Jun-30 22:17N 35°41' E 139°57'0 0.0
2015-Jun-30 21:29N 35°41' E 139°57'0 0.0
2015-Jun-30 20:23N 35°41' E 139°57'0 0.0
2015-Jun-30 19:23N 35°41' E 139°57'0 0.0
2015-Jun-30 18:29N 35°41' E 139°57'0 0.0
2015-Jun-30 17:29N 35°41' E 139°57'0 0.0
2015-Jun-30 16:23N 35°41' E 139°57'0 0.0
2015-Jun-30 15:29N 35°41' E 139°57'0 0.0
2015-Jun-30 14:23N 35°41' E 139°57'0 0.0
2015-Jun-30 13:23N 35°41' E 139°57'0 0.0
2015-Jun-30 12:29N 35°41' E 139°57'0 0.0
2015-Jun-30 11:29N 35°41' E 139°57'0 0.0
2015-Jun-30 10:29N 35°41' E 139°57'0 0.0
2015-Jun-30 09:29N 35°41' E 139°57'0 0.0
2015-Jun-30 07:23N 35°41' E 139°57'0 0.0
2015-Jun-30 06:29N 35°41' E 139°57'0 0.0
2015-Jun-30 05:32N 35°41' E 139°57'6 5.7
2015-Jun-30 04:33N 35°36' E 139°58'1111.5
2015-Jun-30 03:33N 35°27' E 139°49'1010.5
2015-Jun-30 02:33N 35°16' E 139°46'1110.5
2015-Jun-30 01:33N 35°06' E 139°44'  
Track history (hours):
 
Tides and Currents Weather Stations Pressure Air Temp Water Temp Dewpoint Dewpoint Depression Visibility Wind Speed Wind Dir Waves Ship Positions

Sankoumaru 31

Last reported at 2015-Jul-06 00:31 UTC. Time now 2015-Jul-06 00:55 UTC.
Position N 35°55' E 140°40'.

Length 75 m; draft 5 m.

Type: Cargo ship. MMSI: 431501842.

Date/timePositionNaut miles runAvg speedWind from/ knotsBaromVisibWave heightAir tempDewpointWater temp
2015-Jul-06 00:31N 35°55' E 140°40'0 0.0
2015-Jul-05 23:22N 35°55' E 140°40'0 0.0
2015-Jul-05 22:28N 35°55' E 140°40'0 0.0
2015-Jul-05 21:25N 35°55' E 140°40'0 0.0
2015-Jul-05 20:25N 35°55' E 140°40'0 0.0
2015-Jul-05 19:28N 35°55' E 140°40'0 0.0
2015-Jul-05 18:31N 35°55' E 140°40'0 0.0
2015-Jul-05 17:28N 35°55' E 140°40'0 0.0
2015-Jul-05 16:28N 35°55' E 140°40'0 0.0
2015-Jul-05 15:31N 35°55' E 140°40'0 0.0
2015-Jul-05 14:31N 35°55' E 140°40'0 0.0
2015-Jul-05 13:31N 35°55' E 140°40'0 0.1
2015-Jul-05 12:33N 35°55' E 140°40'  
2015-Jul-03 04:32N 35°26' E 140°40'1211.3
2015-Jul-03 03:30N 35°17' E 140°31'1111.3
2015-Jul-03 02:30N 35°08' E 140°23'1212.3
2015-Jul-03 01:33N 35°01' E 140°11'1312.9
2015-Jul-03 00:33N 34°54' E 139°58'1010.2
2015-Jul-02 23:33N 34°55' E 139°46'1010.1
2015-Jul-02 22:33N 35°05' E 139°44'1111.3
2015-Jul-02 21:33N 35°16' E 139°45'9 9.1
2015-Jul-02 20:33N 35°26' E 139°47'7 6.8
2015-Jul-02 19:33N 35°22' E 139°53'0 0.0
2015-Jul-02 18:33N 35°22' E 139°53'0 0.0
2015-Jul-02 17:33N 35°22' E 139°53'0 0.0
2015-Jul-02 16:33N 35°22' E 139°53'0 0.0
2015-Jul-02 15:30N 35°22' E 139°53'0 0.0
2015-Jul-02 14:27N 35°22' E 139°53'0 0.0
2015-Jul-02 13:27N 35°22' E 139°53'0 0.0
2015-Jul-02 12:33N 35°22' E 139°53'0 0.0
2015-Jul-02 11:30N 35°22' E 139°53'0 0.0
2015-Jul-02 10:21N 35°22' E 139°53'0 0.0
2015-Jul-02 09:30N 35°22' E 139°53'0 0.0
2015-Jul-02 08:33N 35°22' E 139°53'0 0.0
2015-Jul-02 07:33N 35°22' E 139°53'8 7.9
2015-Jul-02 06:33N 35°29' E 139°51'1111.1
2015-Jul-02 05:33N 35°39' E 139°58'2 1.0
2015-Jul-02 03:23N 35°41' E 139°57'0 0.0
2015-Jul-02 02:23N 35°41' E 139°57'0 0.0
2015-Jul-02 01:17N 35°41' E 139°57'0 0.0
2015-Jul-02 00:29N 35°41' E 139°57'0 0.0
2015-Jul-01 22:11N 35°41' E 139°57'0 0.0
2015-Jul-01 21:17N 35°41' E 139°57'0 0.0
2015-Jul-01 20:23N 35°41' E 139°57'0 0.0
2015-Jul-01 19:11N 35°41' E 139°57'0 0.0
2015-Jul-01 18:29N 35°41' E 139°57'0 0.0
2015-Jul-01 17:11N 35°41' E 139°57'0 0.0
2015-Jul-01 16:23N 35°41' E 139°57'0 0.0
2015-Jul-01 14:29N 35°41' E 139°57'0 0.0
2015-Jul-01 13:29N 35°41' E 139°57'0 0.0
2015-Jul-01 12:29N 35°41' E 139°57'0 0.0
2015-Jul-01 11:23N 35°41' E 139°57'0 0.0
2015-Jul-01 10:29N 35°41' E 139°57'0 0.0
2015-Jul-01 09:29N 35°41' E 139°57'0 0.0
2015-Jul-01 08:23N 35°41' E 139°57'0 0.0
2015-Jul-01 07:11N 35°41' E 139°57'0 0.0
2015-Jul-01 06:11N 35°41' E 139°57'0 0.0
2015-Jul-01 05:23N 35°41' E 139°57'0 0.0
2015-Jul-01 04:17N 35°41' E 139°57'0 0.0
2015-Jul-01 03:23N 35°41' E 139°57'0 0.0
2015-Jul-01 02:29N 35°41' E 139°57'0 0.0
2015-Jul-01 01:29N 35°41' E 139°57'0 0.0
2015-Jul-01 00:29N 35°41' E 139°57'0 0.0
2015-Jun-30 22:17N 35°41' E 139°57'0 0.0
2015-Jun-30 21:29N 35°41' E 139°57'0 0.0
2015-Jun-30 20:23N 35°41' E 139°57'0 0.0
2015-Jun-30 19:23N 35°41' E 139°57'0 0.0
2015-Jun-30 18:29N 35°41' E 139°57'0 0.0
2015-Jun-30 17:29N 35°41' E 139°57'0 0.0
2015-Jun-30 16:23N 35°41' E 139°57'0 0.0
2015-Jun-30 15:29N 35°41' E 139°57'0 0.0
2015-Jun-30 14:23N 35°41' E 139°57'0 0.0
2015-Jun-30 13:23N 35°41' E 139°57'0 0.0
2015-Jun-30 12:29N 35°41' E 139°57'0 0.0
2015-Jun-30 11:29N 35°41' E 139°57'0 0.0
2015-Jun-30 10:29N 35°41' E 139°57'0 0.0
2015-Jun-30 09:29N 35°41' E 139°57'0 0.0
2015-Jun-30 07:23N 35°41' E 139°57'0 0.0
2015-Jun-30 06:29N 35°41' E 139°57'0 0.0
2015-Jun-30 05:32N 35°41' E 139°57'6 5.7
2015-Jun-30 04:33N 35°36' E 139°58'1111.5
2015-Jun-30 03:33N 35°27' E 139°49'1010.5
2015-Jun-30 02:33N 35°16' E 139°46'1110.5
2015-Jun-30 01:33N 35°06' E 139°44'  

Dump ship's entire track history